Bimble, Kentucky
Current Conditions -  °F | °C
As of 10:55 AM on Sunday 23 Nov 2014 (Local Time) from K1A6 Reporting Station
Overcast Overcast  
Wind Chill: 54°   Ceiling: 10000
Heat Index: 54°   Visibility: 10mi
Dew Point: 44°   Wind: 5mph
Humidity: 69%   Direction: 70°ENE
Pressure: 29.99"   Gusts: NA
Location:  36.87°N, 83.83°W
Report Text: K1A6 231555Z AUTO 07004KT 10SM OVC100 12/07 A2999 RMK AO2 T01200065
Loading
Personal Weather Stations






























Interactive Weather Map New forecast layout! Learn more

10-Day Weather Forecast

Advertisements
Track Severe Weather on mobile